Time;durP1;ratioP1;P1;durP2;ratioP2;P2;SDS_P1;SDS_P2;PMS_P1;PMS_P2;Temp;Humidity;BMP_temperature;BMP_pressure;BME280_temperature;BME280_humidity;BME280_pressure;Samples;Min_cycle;Max_cycle;Signal;HPM_P1;HPM_P2
2022/06/03 00:01:35;;;;;;;;;18.25;12.50;;;;;;;;5086558;27;51043;-46
2022/06/03 00:04:33;;;;;;;;;15.50;12.75;;;;;;;;5092309;27;51201;-48
2022/06/03 00:07:30;;;;;;;;;15.00;11.25;;;;;;;;5090777;27;51502;-46
2022/06/03 00:10:33;;;;;;;;;8.50;8.50;;;;;;;;5093360;27;51567;-45
2022/06/03 00:13:17;;;;;;;;;13.25;10.75;;;;;;;;5094635;27;51417;-45
2022/06/03 00:16:07;;;;;;;;;9.00;8.00;;;;;;;;5089161;27;51107;-44
2022/06/03 00:18:51;;;;;;;;;13.75;11.00;;;;;;;;5088870;27;51126;-47
2022/06/03 00:21:45;;;;;;;;;17.50;15.00;;;;;;;;5092390;27;51554;-46
2022/06/03 00:24:40;;;;;;;;;13.00;10.00;;;;;;;;5091070;27;51193;-47
2022/06/03 00:27:27;;;;;;;;;11.75;11.75;;;;;;;;5087967;27;51150;-45
2022/06/03 00:30:33;;;;;;;;;16.00;13.00;;;;;;;;5073162;27;51088;-45
2022/06/03 00:33:36;;;;;;;;;14.25;13.25;;;;;;;;5062749;27;51084;-49
2022/06/03 00:36:38;;;;;;;;;13.00;13.00;;;;;;;;5064435;27;51223;-47
2022/06/03 00:39:48;;;;;;;;;16.75;13.00;;;;;;;;5066163;27;51123;-46
2022/06/03 00:43:05;;;;;;;;;16.00;14.00;;;;;;;;5061517;27;51102;-46
2022/06/03 00:45:55;;;;;;;;;17.25;12.25;;;;;;;;5066082;27;51121;-46
2022/06/03 00:49:02;;;;;;;;;13.25;11.50;;;;;;;;5061661;27;51139;-43
2022/06/03 00:52:06;;;;;;;;;18.00;12.00;;;;;;;;5065539;27;51591;-45
2022/06/03 00:55:15;;;;;;;;;14.00;12.50;;;;;;;;5058042;27;51184;-47
2022/06/03 00:58:38;;;;;;;;;11.00;11.00;;;;;;;;5059168;28;51213;-49
2022/06/03 01:01:34;;;;;;;;;14.50;11.25;;;;;;;;5057928;28;51100;-49
2022/06/03 01:04:37;;;;;;;;;11.75;11.00;;;;;;;;5059214;28;51052;-46
2022/06/03 01:07:41;;;;;;;;;14.00;10.25;;;;;;;;5058806;28;51227;-45
2022/06/03 01:10:31;;;;;;;;;16.25;10.25;;;;;;;;5058924;28;51222;-47
2022/06/03 01:13:39;;;;;;;;;15.00;11.25;;;;;;;;5058965;28;51274;-47
2022/06/03 01:16:41;;;;;;;;;16.25;10.00;;;;;;;;5059295;28;51069;-49
2022/06/03 01:19:35;;;;;;;;;13.75;10.50;;;;;;;;5050592;28;51048;-50
2022/06/03 01:22:29;;;;;;;;;12.00;11.00;;;;;;;;5057926;28;51170;-45
2022/06/03 01:25:28;;;;;;;;;10.75;9.50;;;;;;;;5058935;28;51463;-46
2022/06/03 01:28:38;;;;;;;;;14.50;11.25;;;;;;;;5058827;28;51143;-46
2022/06/03 01:31:49;;;;;;;;;11.00;11.00;;;;;;;;5058929;28;51183;-46
2022/06/03 01:34:54;;;;;;;;;13.50;10.50;;;;;;;;5039095;28;51559;-45
2022/06/03 01:37:59;;;;;;;;;12.75;10.75;;;;;;;;5051584;28;51420;-45
2022/06/03 01:40:50;;;;;;;;;16.75;14.50;;;;;;;;5057391;28;51085;-48
2022/06/03 01:44:04;;;;;;;;;14.00;11.00;;;;;;;;5058545;28;51211;-44
2022/06/03 01:47:16;;;;;;;;;12.25;9.25;;;;;;;;5058526;28;51525;-45
2022/06/03 01:50:19;;;;;;;;;10.50;9.50;;;;;;;;5059279;28;51177;-45
2022/06/03 01:53:07;;;;;;;;;19.00;14.00;;;;;;;;5059339;28;51348;-45
2022/06/03 01:56:07;;;;;;;;;12.25;11.00;;;;;;;;5058793;28;51201;-47
2022/06/03 01:59:14;;;;;;;;;13.00;12.00;;;;;;;;5056046;28;51064;-43
2022/06/03 02:02:24;;;;;;;;;14.00;12.25;;;;;;;;5054241;28;51420;-46
2022/06/03 02:05:27;;;;;;;;;15.00;12.00;;;;;;;;5040233;28;51671;-46
2022/06/03 02:08:24;;;;;;;;;16.25;13.00;;;;;;;;5058596;28;51151;-46
2022/06/03 02:11:26;;;;;;;;;13.25;12.25;;;;;;;;5059186;28;51014;-46
2022/06/03 02:14:29;;;;;;;;;13.50;11.00;;;;;;;;5058961;28;51651;-46
2022/06/03 02:17:30;;;;;;;;;12.50;10.50;;;;;;;;5057847;28;51248;-43
2022/06/03 02:23:19;;;;;;;;;14.75;11.25;;;;;;;;4971426;28;52053;-48
2022/06/03 02:26:19;;;;;;;;;16.00;13.00;;;;;;;;4980230;28;51096;-43
2022/06/03 02:32:41;;;;;;;;;14.00;10.50;;;;;;;;4999754;28;51180;-44
2022/06/03 02:35:34;;;;;;;;;13.00;9.75;;;;;;;;4993526;28;51286;-46
2022/06/03 02:38:27;;;;;;;;;14.75;11.25;;;;;;;;4999950;28;51130;-47
2022/06/03 02:41:30;;;;;;;;;13.75;11.25;;;;;;;;4998516;28;51232;-47
2022/06/03 02:44:36;;;;;;;;;11.00;10.25;;;;;;;;4999082;28;51491;-46
2022/06/03 02:47:21;;;;;;;;;15.25;12.25;;;;;;;;4999681;28;51493;-48
2022/06/03 02:50:26;;;;;;;;;16.25;13.00;;;;;;;;4999481;28;51513;-48
2022/06/03 02:53:31;;;;;;;;;12.00;10.25;;;;;;;;4995940;28;51175;-47
2022/06/03 02:56:24;;;;;;;;;12.00;10.25;;;;;;;;4997327;28;51564;-45
2022/06/03 02:59:32;;;;;;;;;12.00;10.50;;;;;;;;5005641;27;51144;-46
2022/06/03 03:02:29;;;;;;;;;16.00;13.75;;;;;;;;5067012;27;51162;-45
2022/06/03 03:05:22;;;;;;;;;16.25;12.25;;;;;;;;5077408;27;51109;-48
2022/06/03 03:08:26;;;;;;;;;14.00;12.00;;;;;;;;5080414;27;51077;-44
2022/06/03 03:11:31;;;;;;;;;11.50;10.75;;;;;;;;5081333;27;51205;-44
2022/06/03 03:14:30;;;;;;;;;13.00;12.25;;;;;;;;5081797;27;51660;-44
2022/06/03 03:17:18;;;;;;;;;13.00;12.50;;;;;;;;5081238;27;51213;-43
2022/06/03 03:20:28;;;;;;;;;15.25;11.25;;;;;;;;5082149;27;51185;-46
2022/06/03 03:23:34;;;;;;;;;2.75;0.00;;;;;;;;5081280;27;51378;-43
2022/06/03 03:26:37;;;;;;;;;16.75;10.75;;;;;;;;5081457;27;51496;-44
2022/06/03 03:29:46;;;;;;;;;11.25;10.00;;;;;;;;5078720;27;51136;-45
2022/06/03 03:32:43;;;;;;;;;17.25;12.50;;;;;;;;5061286;28;51136;-48
2022/06/03 03:35:31;;;;;;;;;16.75;12.25;;;;;;;;5060533;28;51581;-45
2022/06/03 03:38:34;;;;;;;;;11.75;11.25;;;;;;;;5060782;28;51048;-45
2022/06/03 03:41:39;;;;;;;;;13.00;10.50;;;;;;;;5060868;28;51320;-45
2022/06/03 03:44:39;;;;;;;;;11.75;11.75;;;;;;;;5060413;28;51176;-48
2022/06/03 03:47:45;;;;;;;;;13.00;12.75;;;;;;;;5061098;28;51165;-50
2022/06/03 03:50:42;;;;;;;;;19.00;14.25;;;;;;;;5060713;28;51467;-46
2022/06/03 03:53:41;;;;;;;;;16.50;14.00;;;;;;;;5044430;28;51545;-49
2022/06/03 03:56:45;;;;;;;;;22.25;20.75;;;;;;;;5059326;28;51628;-45
2022/06/03 03:59:47;;;;;;;;;15.25;15.25;;;;;;;;5059249;28;51060;-44
2022/06/03 04:02:35;;;;;;;;;22.00;17.50;;;;;;;;5059032;28;51420;-46
2022/06/03 04:05:38;;;;;;;;;22.00;18.50;;;;;;;;5059782;28;51233;-43
2022/06/03 04:08:38;;;;;;;;;25.50;25.00;;;;;;;;5060524;28;51544;-45
2022/06/03 04:11:41;;;;;;;;;19.50;18.50;;;;;;;;5060507;28;51165;-45
2022/06/03 04:14:45;;;;;;;;;28.50;21.75;;;;;;;;5057688;27;51091;-46
2022/06/03 04:17:49;;;;;;;;;24.75;23.50;;;;;;;;5057229;28;51110;-45
2022/06/03 04:20:55;;;;;;;;;22.00;21.50;;;;;;;;5060188;28;51087;-51
2022/06/03 04:24:01;;;;;;;;;24.25;22.25;;;;;;;;5060061;28;51195;-48
2022/06/03 04:27:03;;;;;;;;;22.25;21.00;;;;;;;;5060232;28;51298;-51
2022/06/03 04:30:06;;;;;;;;;27.25;24.25;;;;;;;;5065300;27;51536;-49
2022/06/03 04:33:06;;;;;;;;;25.25;25.00;;;;;;;;5059098;28;51295;-47
2022/06/03 04:35:52;;;;;;;;;29.25;24.00;;;;;;;;5058035;28;51250;-47
2022/06/03 04:38:55;;;;;;;;;30.00;25.75;;;;;;;;5059384;28;51195;-46
2022/06/03 04:41:57;;;;;;;;;23.50;21.25;;;;;;;;5051378;28;51162;-43
2022/06/03 04:45:01;;;;;;;;;27.00;26.50;;;;;;;;5055034;28;51583;-43
2022/06/03 04:48:10;;;;;;;;;36.00;28.00;;;;;;;;5058967;28;51189;-44
2022/06/03 04:51:09;;;;;;;;;34.00;28.25;;;;;;;;5058920;28;51218;-48
2022/06/03 04:54:13;;;;;;;;;52.25;41.50;;;;;;;;5057855;28;51210;-49
2022/06/03 04:57:23;;;;;;;;;43.75;33.00;;;;;;;;5059132;28;51088;-50
2022/06/03 05:00:27;;;;;;;;;31.25;25.50;;;;;;;;5058477;28;51168;-47
2022/06/03 05:03:46;;;;;;;;;31.25;26.50;;;;;;;;5059489;28;51596;-49
2022/06/03 05:06:35;;;;;;;;;28.25;25.00;;;;;;;;5059393;28;51190;-47
2022/06/03 05:09:37;;;;;;;;;33.50;26.50;;;;;;;;5061055;27;51100;-49
2022/06/03 05:12:43;;;;;;;;;36.75;27.00;;;;;;;;5079034;27;51540;-47
2022/06/03 05:15:50;;;;;;;;;32.25;29.00;;;;;;;;5061528;27;51092;-44
2022/06/03 05:18:56;;;;;;;;;35.00;29.50;;;;;;;;5057629;28;51192;-49
2022/06/03 05:21:43;;;;;;;;;32.25;27.75;;;;;;;;5057647;28;51176;-45
2022/06/03 05:24:46;;;;;;;;;27.25;26.25;;;;;;;;5058042;28;51087;-47
2022/06/03 05:27:54;;;;;;;;;28.50;24.50;;;;;;;;5054839;28;51279;-45
2022/06/03 05:30:48;;;;;;;;;34.25;29.75;;;;;;;;5058951;28;51478;-46
2022/06/03 05:33:35;;;;;;;;;33.50;31.25;;;;;;;;5058067;28;51220;-48
2022/06/03 05:36:44;;;;;;;;;38.25;33.75;;;;;;;;5059033;28;51158;-48
2022/06/03 05:39:47;;;;;;;;;37.75;31.50;;;;;;;;5058599;28;51142;-46
2022/06/03 05:42:47;;;;;;;;;31.50;29.00;;;;;;;;5058589;28;51612;-44
2022/06/03 05:45:56;;;;;;;;;33.75;29.50;;;;;;;;5058317;28;51155;-46
2022/06/03 05:48:51;;;;;;;;;34.00;28.75;;;;;;;;5059291;28;51061;-45
2022/06/03 05:51:57;;;;;;;;;37.50;32.25;;;;;;;;5058144;28;51156;-46
2022/06/03 05:55:07;;;;;;;;;34.25;29.75;;;;;;;;4976716;28;51149;-43
2022/06/03 05:57:56;;;;;;;;;41.00;34.50;;;;;;;;4991632;28;51549;-44
2022/06/03 06:00:56;;;;;;;;;42.00;33.75;;;;;;;;5000272;28;51216;-44
2022/06/03 06:04:11;;;;;;;;;39.75;34.50;;;;;;;;5000594;28;51094;-47
2022/06/03 06:07:13;;;;;;;;;40.75;33.75;;;;;;;;5000273;28;51140;-47
2022/06/03 06:10:10;;;;;;;;;50.25;39.75;;;;;;;;4974161;28;51387;-43
2022/06/03 06:13:01;;;;;;;;;48.00;37.25;;;;;;;;4979812;28;51200;-45
2022/06/03 06:16:06;;;;;;;;;50.00;38.00;;;;;;;;4980711;28;51258;-43
2022/06/03 06:19:02;;;;;;;;;45.00;37.00;;;;;;;;4978498;28;51188;-45
2022/06/03 06:22:24;;;;;;;;;43.00;35.00;;;;;;;;4979710;28;51142;-45
2022/06/03 06:25:13;;;;;;;;;43.75;36.50;;;;;;;;4941206;28;51155;-46
2022/06/03 06:28:02;;;;;;;;;44.50;36.00;;;;;;;;4941124;28;51111;-44
2022/06/03 06:31:03;;;;;;;;;47.00;36.50;;;;;;;;5008069;27;51047;-46
2022/06/03 06:34:07;;;;;;;;;49.75;40.25;;;;;;;;5082439;27;51426;-43
2022/06/03 06:36:58;;;;;;;;;50.00;41.75;;;;;;;;5081975;27;51006;-49
2022/06/03 06:40:07;;;;;;;;;53.25;40.50;;;;;;;;5082170;27;51097;-46
2022/06/03 06:42:56;;;;;;;;;53.00;43.00;;;;;;;;5082491;27;51119;-45
2022/06/03 06:45:50;;;;;;;;;52.75;43.75;;;;;;;;5082121;27;51421;-46
2022/06/03 06:48:51;;;;;;;;;60.25;45.75;;;;;;;;5082446;27;51157;-46
2022/06/03 06:51:51;;;;;;;;;60.25;48.50;;;;;;;;5082404;27;51177;-46
2022/06/03 06:55:08;;;;;;;;;60.00;47.25;;;;;;;;5082144;27;51095;-49
2022/06/03 06:57:54;;;;;;;;;58.50;45.50;;;;;;;;5082273;27;51087;-44
2022/06/03 07:00:41;;;;;;;;;57.25;43.75;;;;;;;;5082267;27;51156;-43
2022/06/03 07:03:37;;;;;;;;;44.25;34.75;;;;;;;;5082094;27;51560;-50
2022/06/03 07:06:29;;;;;;;;;53.50;41.75;;;;;;;;5082021;27;51103;-45
2022/06/03 07:09:28;;;;;;;;;51.25;41.50;;;;;;;;5073672;27;51153;-44
2022/06/03 07:12:24;;;;;;;;;47.75;38.50;;;;;;;;5081883;27;51333;-47
2022/06/03 07:15:21;;;;;;;;;48.25;39.25;;;;;;;;5081607;27;51127;-44
2022/06/03 07:21:38;;;;;;;;;49.50;41.00;;;;;;;;5081116;27;51135;-45
2022/06/03 07:24:40;;;;;;;;;49.50;39.25;;;;;;;;5075885;27;51196;-44
2022/06/03 07:27:28;;;;;;;;;55.00;41.25;;;;;;;;5062817;27;51375;-44
2022/06/03 07:30:31;;;;;;;;;49.25;40.75;;;;;;;;5076694;27;51821;-45
2022/06/03 07:33:34;;;;;;;;;54.50;41.75;;;;;;;;5075726;27;51162;-45
2022/06/03 07:36:21;;;;;;;;;54.50;42.75;;;;;;;;5080993;27;51201;-47
2022/06/03 07:39:47;;;;;;;;;54.75;42.25;;;;;;;;5073619;27;52272;-44
2022/06/03 07:42:38;;;;;;;;;49.50;40.25;;;;;;;;5080534;27;51102;-44
2022/06/03 07:45:35;;;;;;;;;51.00;40.00;;;;;;;;5080216;27;51810;-45
2022/06/03 07:48:22;;;;;;;;;51.50;40.00;;;;;;;;5080271;27;51244;-45
2022/06/03 07:51:32;;;;;;;;;55.00;42.50;;;;;;;;5080696;27;51209;-45
2022/06/03 07:54:36;;;;;;;;;48.25;40.00;;;;;;;;5079917;27;51192;-45
2022/06/03 07:57:23;;;;;;;;;46.25;37.00;;;;;;;;5080852;27;51564;-44
2022/06/03 08:00:15;;;;;;;;;48.25;40.00;;;;;;;;5080922;27;51051;-46
2022/06/03 08:03:07;;;;;;;;;51.00;41.00;;;;;;;;5081163;27;51193;-43
2022/06/03 08:05:59;;;;;;;;;47.25;37.75;;;;;;;;5080930;27;51430;-45
2022/06/03 08:11:54;;;;;;;;;51.50;40.75;;;;;;;;5080182;27;51124;-42
2022/06/03 08:14:51;;;;;;;;;51.50;41.00;;;;;;;;5080024;27;51481;-43
2022/06/03 08:17:38;;;;;;;;;49.50;38.75;;;;;;;;5080281;27;51166;-41
2022/06/03 08:20:25;;;;;;;;;47.00;38.25;;;;;;;;5080293;27;51499;-44
2022/06/03 08:23:22;;;;;;;;;51.25;41.00;;;;;;;;5080378;27;51682;-42
2022/06/03 08:26:20;;;;;;;;;46.50;37.00;;;;;;;;5079402;27;51101;-42
2022/06/03 08:29:25;;;;;;;;;46.00;36.50;;;;;;;;5080262;27;51039;-44
2022/06/03 08:32:18;;;;;;;;;44.25;35.75;;;;;;;;5076768;27;51402;-44
2022/06/03 08:35:23;;;;;;;;;46.25;36.00;;;;;;;;5077840;27;51193;-47
2022/06/03 08:38:17;;;;;;;;;37.25;28.75;;;;;;;;5074716;27;51110;-45
2022/06/03 08:41:23;;;;;;;;;40.00;30.50;;;;;;;;5062621;27;51213;-43
2022/06/03 08:44:14;;;;;;;;;38.50;32.25;;;;;;;;5068698;27;51274;-44
2022/06/03 08:47:22;;;;;;;;;38.25;32.50;;;;;;;;5076511;27;51078;-45
2022/06/03 08:50:26;;;;;;;;;15.00;12.00;;;;;;;;5079501;27;51019;-52
2022/06/03 08:53:42;;;;;;;;;10.75;6.25;;;;;;;;5078842;27;51079;-53
